Time;durP1;ratioP1;P1;durP2;ratioP2;P2;SDS_P1;SDS_P2;PMS_P1;PMS_P2;Temp;Humidity;BMP_temperature;BMP_pressure;BME280_temperature;BME280_humidity;BME280_pressure;Samples;Min_cycle;Max_cycle;Signal;HPM_P1;HPM_P2
2023/03/21 00:00:47;;;;;;;7.28;4.07;;;;;;;15.84;46.27;99562.84;4411496;32;33103;-62
2023/03/21 00:03:15;;;;;;;8.20;4.28;;;;;;;15.30;47.37;99551.06;4420325;32;33748;-62
2023/03/21 00:05:50;;;;;;;8.77;4.37;;;;;;;15.95;46.08;99550.97;4415727;32;35056;-65
2023/03/21 00:08:20;;;;;;;17.23;5.35;;;;;;;15.95;45.98;99548.25;4418767;32;33863;-64
2023/03/21 00:10:55;;;;;;;6.72;3.50;;;;;;;15.74;46.25;99549.41;4416237;32;33097;-62
2023/03/21 00:13:22;;;;;;;;;;;;;;;16.11;45.59;99544.88;4417953;32;34912;-61
2023/03/21 00:15:50;;;;;;;8.52;4.37;;;;;;;15.92;45.97;99545.88;4419449;32;32591;-62
2023/03/21 00:18:40;;;;;;;3.80;2.78;;;;;;;16.13;45.38;99545.56;4420271;32;33235;-62
2023/03/21 00:21:14;;;;;;;3.58;2.87;;;;;;;16.14;45.36;99549.97;4415192;32;33430;-62
2023/03/21 00:24:03;;;;;;;6.78;4.18;;;;;;;16.13;45.29;99541.03;4418204;32;33642;-62
2023/03/21 00:26:31;;;;;;;7.85;3.03;;;;;;;16.18;45.09;99540.53;4418408;32;33715;-62
2023/03/21 00:28:59;;;;;;;8.43;3.75;;;;;;;16.45;44.30;99543.13;4419743;32;34384;-62
2023/03/21 00:31:26;;;;;;;3.12;2.62;;;;;;;16.41;44.34;99541.75;4419123;32;33372;-64
2023/03/21 00:33:54;;;;;;;6.12;3.37;;;;;;;16.50;43.99;99535.41;4417284;32;31782;-65
2023/03/21 00:36:24;;;;;;;3.60;3.05;;;;;;;16.48;43.92;99540.12;4417225;32;33953;-65
2023/03/21 00:38:53;;;;;;;5.95;3.95;;;;;;;16.51;43.85;99529.00;4420531;32;33610;-65
2023/03/21 00:41:20;;;;;;;5.87;3.70;;;;;;;16.48;43.89;99533.88;4418413;32;34663;-62
2023/03/21 00:44:08;;;;;;;3.40;2.60;;;;;;;16.44;43.96;99522.53;4419058;32;35603;-63
2023/03/21 00:46:36;;;;;;;5.78;3.78;;;;;;;16.20;44.65;99533.12;4420463;32;33667;-64
2023/03/21 00:49:19;;;;;;;4.20;3.60;;;;;;;15.67;46.03;99529.44;4421012;32;33792;-62
2023/03/21 00:51:50;;;;;;;4.68;3.35;;;;;;;15.80;45.83;99524.53;4419694;32;32971;-65
2023/03/21 00:54:18;;;;;;;6.45;2.58;;;;;;;16.11;44.98;99523.28;4420416;32;33428;-62
2023/03/21 00:56:45;;;;;;;5.00;3.30;;;;;;;16.18;44.64;99524.34;4420426;32;34018;-65
2023/03/21 00:59:13;;;;;;;9.70;4.22;;;;;;;16.10;44.77;99527.81;4418863;32;34301;-61
2023/03/21 01:01:42;;;;;;;4.37;3.35;;;;;;;16.10;44.73;99522.44;4416406;32;33093;-63
2023/03/21 01:04:13;;;;;;;3.40;2.42;;;;;;;16.15;44.53;99525.53;4418833;32;33735;-63
2023/03/21 01:06:42;;;;;;;5.37;3.70;;;;;;;16.07;44.78;99520.03;4414367;32;33801;-63
2023/03/21 01:09:15;;;;;;;5.68;3.05;;;;;;;16.03;44.74;99516.81;4417370;32;34614;-62
2023/03/21 01:11:44;;;;;;;6.47;4.10;;;;;;;16.06;44.60;99518.34;4417537;32;33218;-63
2023/03/21 01:14:13;;;;;;;5.47;2.90;;;;;;;16.10;44.45;99517.03;4417221;32;33447;-62
2023/03/21 01:16:51;;;;;;;4.90;2.90;;;;;;;15.76;45.39;99520.44;4417512;32;35525;-64
2023/03/21 01:19:22;;;;;;;5.28;3.15;;;;;;;15.74;45.45;99513.50;4419480;32;34103;-63
2023/03/21 01:22:05;;;;;;;4.18;3.22;;;;;;;15.60;45.88;99518.38;4418308;32;33226;-68
2023/03/21 01:24:32;;;;;;;5.07;2.37;;;;;;;15.86;45.09;99509.56;4418708;32;33793;-65
2023/03/21 01:27:04;;;;;;;6.70;3.42;;;;;;;15.89;44.96;99514.66;4420866;32;34712;-63
2023/03/21 01:29:32;;;;;;;5.45;3.30;;;;;;;15.85;45.05;99510.56;4420175;32;33996;-66
2023/03/21 01:32:00;;;;;;;3.45;2.60;;;;;;;15.74;45.13;99508.09;4419528;32;33441;-63
2023/03/21 01:34:28;;;;;;;6.03;3.47;;;;;;;15.77;45.20;99510.50;4417357;32;33829;-65
2023/03/21 01:36:56;;;;;;;4.78;3.20;;;;;;;15.70;45.41;99506.72;4418508;32;35135;-63
2023/03/21 01:39:23;;;;;;;6.40;3.65;;;;;;;15.63;45.43;99510.97;4416551;32;33451;-67
2023/03/21 01:41:51;;;;;;;4.43;2.83;;;;;;;15.39;46.19;99504.31;4420018;32;33510;-63
2023/03/21 01:44:19;;;;;;;3.60;3.05;;;;;;;15.31;46.41;99515.00;4417465;32;35055;-65
2023/03/21 01:46:51;;;;;;;4.90;3.85;;;;;;;15.37;46.26;99511.69;4419364;32;33830;-63
2023/03/21 01:49:44;;;;;;;3.92;2.55;;;;;;;15.65;45.75;99517.06;4411078;32;32244;-66
2023/03/21 01:52:17;;;;;;;5.90;3.80;;;;;;;15.43;46.42;99521.03;4418646;32;33781;-63
2023/03/21 01:55:04;;;;;;;2.55;2.12;;;;;;;15.48;46.32;99516.06;4403496;32;33743;-63
2023/03/21 01:57:38;;;;;;;5.43;3.12;;;;;;;15.35;46.61;99511.03;4406885;32;34016;-63
2023/03/21 02:00:19;;;;;;;4.72;3.03;;;;;;;15.25;46.89;99512.91;4420300;32;33872;-64
2023/03/21 02:02:54;;;;;;;7.53;4.05;;;;;;;15.19;47.10;99514.38;4403149;32;33281;-63
2023/03/21 02:05:39;;;;;;;6.53;4.03;;;;;;;14.94;47.76;99510.50;4416709;32;34756;-62
2023/03/21 02:08:07;;;;;;;10.13;3.65;;;;;;;15.05;47.54;99515.69;4412747;32;33950;-63
2023/03/21 02:10:35;;;;;;;2.33;1.85;;;;;;;14.68;48.53;99508.47;4417866;32;34034;-63
2023/03/21 02:13:08;;;;;;;3.12;2.60;;;;;;;15.00;47.73;99509.91;4416636;32;33887;-61
2023/03/21 02:15:38;;;;;;;3.55;2.42;;;;;;;15.07;47.52;99510.16;4416738;32;32515;-62
2023/03/21 02:18:29;;;;;;;7.37;4.37;;;;;;;14.84;48.10;99518.63;4405226;32;33709;-64
2023/03/21 02:21:32;;;;;;;6.55;2.70;;;;;;;14.55;48.93;99518.72;4401749;32;33989;-68
2023/03/21 02:24:19;;;;;;;4.18;3.20;;;;;;;14.72;48.59;99513.56;4418508;32;33105;-63
2023/03/21 02:26:57;;;;;;;7.22;3.17;;;;;;;14.26;49.61;99510.69;4418324;32;33970;-64
2023/03/21 02:29:42;;;;;;;3.20;2.78;;;;;;;14.68;48.57;99511.16;4419357;32;33882;-68
2023/03/21 02:32:41;;;;;;;3.55;2.47;;;;;;;14.63;48.79;99512.59;4419614;32;34990;-63
2023/03/21 02:35:26;;;;;;;4.75;3.03;;;;;;;14.51;49.17;99505.69;4413239;32;33187;-63
2023/03/21 02:38:10;;;;;;;2.78;2.12;;;;;;;14.33;49.76;99498.34;4415736;32;33675;-66
2023/03/21 02:41:01;;;;;;;7.53;3.60;;;;;;;14.47;49.41;99499.72;4397986;32;34864;-63
2023/03/21 02:43:44;;;;;;;3.40;2.78;;;;;;;14.54;49.44;99511.66;4418334;32;33734;-65
2023/03/21 02:46:21;;;;;;;2.83;2.20;;;;;;;14.68;48.92;99508.47;4402092;32;34520;-66
2023/03/21 02:49:01;;;;;;;2.87;2.17;;;;;;;14.76;48.66;99505.03;4402281;32;34919;-66
2023/03/21 02:51:30;;;;;;;4.47;2.85;;;;;;;14.74;48.75;99508.91;4404117;32;35222;-63
2023/03/21 02:54:01;;;;;;;4.70;3.33;;;;;;;14.81;48.52;99508.16;4404547;32;33013;-66
2023/03/21 02:56:51;;;;;;;3.70;2.92;;;;;;;14.79;48.68;99518.22;4399461;32;31796;-62
2023/03/21 02:59:21;;;;;;;4.20;3.03;;;;;;;14.86;48.38;99508.56;4396038;32;33392;-63
2023/03/21 03:01:53;;;;;;;2.95;2.42;;;;;;;15.02;48.05;99507.06;4400247;32;32776;-63
2023/03/21 03:04:26;;;;;;;4.20;3.05;;;;;;;14.97;48.02;99510.22;4404074;32;34246;-62
2023/03/21 03:06:57;;;;;;;3.50;2.35;;;;;;;15.06;47.87;99511.19;4399713;32;33891;-65
2023/03/21 03:09:43;;;;;;;3.00;2.05;;;;;;;15.22;47.40;99516.78;4404985;32;33105;-63
2023/03/21 03:12:18;;;;;;;3.00;2.05;;;;;;;15.22;47.45;99511.38;4403107;32;34067;-63
2023/03/21 03:15:10;;;;;;;4.12;2.72;;;;;;;15.23;47.28;99515.75;4404771;32;33555;-64
2023/03/21 03:17:45;;;;;;;3.22;2.70;;;;;;;15.14;47.29;99506.72;4398860;32;33341;-63
2023/03/21 03:20:18;;;;;;;11.65;3.75;;;;;;;14.95;47.91;99501.41;4406499;32;33642;-63
2023/03/21 03:23:11;;;;;;;4.68;3.20;;;;;;;15.03;47.70;99517.72;4404935;32;33754;-64
2023/03/21 03:25:59;;;;;;;4.35;2.37;;;;;;;15.23;47.10;99520.31;4404659;32;33985;-62
2023/03/21 03:28:32;;;;;;;5.45;2.87;;;;;;;14.60;48.74;99510.19;4405849;32;33411;-62
2023/03/21 03:31:00;;;;;;;3.20;2.45;;;;;;;14.84;48.05;99512.41;4402878;32;35036;-65
2023/03/21 03:33:40;;;;;;;5.57;2.60;;;;;;;14.69;48.40;99503.94;4403179;32;33932;-60
2023/03/21 03:36:10;;;;;;;5.00;2.58;;;;;;;14.40;49.19;99502.12;4398718;32;34218;-62
2023/03/21 03:38:56;;;;;;;4.03;2.67;;;;;;;14.26;49.44;99509.84;4405833;32;31975;-63
2023/03/21 03:41:26;;;;;;;5.68;1.85;;;;;;;14.64;48.65;99517.84;4400822;32;33846;-61
2023/03/21 03:43:58;;;;;;;3.47;1.95;;;;;;;14.85;48.08;99512.25;4406066;32;34971;-63
2023/03/21 03:46:32;;;;;;;5.82;2.58;;;;;;;14.60;48.67;99513.72;4402395;32;33857;-62
2023/03/21 03:49:23;;;;;;;3.00;2.08;;;;;;;14.70;48.48;99510.16;4421139;32;34428;-61
2023/03/21 03:51:58;;;;;;;2.95;2.00;;;;;;;14.76;48.39;99509.59;4398000;32;34826;-62
2023/03/21 03:54:31;;;;;;;4.35;2.60;;;;;;;14.65;48.87;99507.94;4405997;32;35234;-63
2023/03/21 03:57:00;;;;;;;3.30;2.28;;;;;;;14.81;48.34;99508.16;4400383;32;35215;-62
2023/03/21 03:59:27;;;;;;;1.85;1.62;;;;;;;14.97;47.88;99501.28;4405869;32;33702;-61
2023/03/21 04:01:55;;;;;;;1.80;1.60;;;;;;;14.86;48.10;99505.00;4413676;32;33651;-63
2023/03/21 04:04:27;;;;;;;2.92;2.60;;;;;;;14.48;48.98;99506.81;4421347;32;34207;-61
2023/03/21 04:06:55;;;;;;;3.25;2.58;;;;;;;14.58;48.89;99504.13;4419217;32;33744;-63
2023/03/21 04:09:27;;;;;;;3.65;2.05;;;;;;;14.57;49.04;99511.31;4421002;32;33043;-65
2023/03/21 04:12:11;;;;;;;3.65;2.08;;;;;;;14.50;49.13;99504.81;4420421;32;34541;-62
2023/03/21 04:14:39;;;;;;;4.65;2.17;;;;;;;14.84;48.25;99504.31;4420286;32;33866;-63
2023/03/21 04:17:14;;;;;;;3.70;2.33;;;;;;;14.83;48.27;99505.28;4420672;32;34054;-63
2023/03/21 04:19:42;;;;;;;3.30;1.95;;;;;;;14.80;48.41;99505.59;4421180;32;32257;-63
2023/03/21 04:22:09;;;;;;;2.45;2.25;;;;;;;14.23;49.84;99510.97;4421164;32;33832;-65
2023/03/21 04:24:38;;;;;;;2.15;1.92;;;;;;;14.05;50.46;99513.50;4419721;32;34032;-64
2023/03/21 04:27:06;;;;;;;4.18;1.92;;;;;;;14.32;49.95;99507.41;4419194;32;33701;-62
2023/03/21 04:29:34;;;;;;;3.50;2.20;;;;;;;14.51;49.47;99505.69;4420878;32;33458;-61
2023/03/21 04:32:03;;;;;;;3.20;1.87;;;;;;;14.57;49.40;99497.87;4421921;32;34075;-62
2023/03/21 04:34:31;;;;;;;3.60;2.45;;;;;;;14.77;48.77;99504.06;4420815;32;33882;-63
2023/03/21 04:36:58;;;;;;;3.83;2.55;;;;;;;14.38;49.88;99500.56;4419079;32;33850;-60
2023/03/21 04:39:26;;;;;;;3.75;2.03;;;;;;;14.70;49.17;99507.47;4421554;32;33280;-61
2023/03/21 04:41:54;;;;;;;4.47;2.90;;;;;;;14.64;49.24;99496.31;4419017;32;33786;-61
2023/03/21 04:44:22;;;;;;;3.75;2.20;;;;;;;14.76;49.15;99499.66;4421305;32;33581;-62
2023/03/21 04:46:50;;;;;;;2.22;2.00;;;;;;;14.66;49.30;99499.69;4419449;32;32412;-60
2023/03/21 04:49:18;;;;;;;2.90;1.87;;;;;;;14.86;48.81;99510.38;4420932;32;34738;-62
2023/03/21 04:51:45;;;;;;;4.80;3.60;;;;;;;14.57;49.54;99499.72;4418552;32;34868;-62
2023/03/21 04:54:14;;;;;;;3.80;3.10;;;;;;;14.41;50.01;99505.66;4420940;32;34036;-61
2023/03/21 04:56:41;;;;;;;4.87;3.22;;;;;;;14.59;49.67;99508.50;4417140;32;33339;-61
2023/03/21 04:59:11;;;;;;;3.75;2.65;;;;;;;13.49;52.79;99504.28;4417236;32;34478;-63
2023/03/21 05:01:40;;;;;;;3.20;2.05;;;;;;;14.38;50.23;99500.56;4420062;32;33557;-62
2023/03/21 05:04:09;;;;;;;2.17;1.58;;;;;;;14.54;49.83;99514.34;4420372;32;33007;-62
2023/03/21 05:06:37;;;;;;;3.53;2.45;;;;;;;14.77;49.00;99508.59;4421442;32;32415;-61
2023/03/21 05:09:05;;;;;;;4.35;3.03;;;;;;;15.22;47.86;99515.94;4419909;32;31873;-62
2023/03/21 05:11:39;;;;;;;3.92;1.75;;;;;;;15.22;47.86;99522.16;4418823;32;34958;-62
2023/03/21 05:14:11;;;;;;;2.97;1.92;;;;;;;15.26;47.72;99514.63;4420131;32;33790;-60
2023/03/21 05:16:43;;;;;;;3.58;2.58;;;;;;;15.11;48.16;99519.66;4402459;32;34739;-62
2023/03/21 05:19:12;;;;;;;4.72;3.00;;;;;;;14.83;48.98;99525.03;4420344;32;33097;-62
2023/03/21 05:21:41;;;;;;;9.52;3.90;;;;;;;14.78;49.05;99524.59;4418609;32;33864;-64
2023/03/21 05:24:13;;;;;;;3.78;2.70;;;;;;;14.19;50.79;99523.88;4416445;32;35033;-61
2023/03/21 05:26:43;;;;;;;4.82;2.58;;;;;;;14.37;50.42;99521.28;4416831;32;33841;-61
2023/03/21 05:29:12;;;;;;;5.90;3.40;;;;;;;14.68;49.71;99521.94;4413290;32;32974;-63
2023/03/21 05:31:39;;;;;;;8.23;3.10;;;;;;;14.90;49.18;99525.28;4421106;32;35151;-63
2023/03/21 05:34:08;;;;;;;4.55;3.28;;;;;;;15.35;48.15;99532.59;4420172;32;34036;-61
2023/03/21 05:36:36;;;;;;;3.55;2.65;;;;;;;14.70;49.73;99535.25;4420853;32;33765;-62
2023/03/21 05:39:05;;;;;;;4.40;3.08;;;;;;;14.68;49.88;99527.34;4419997;32;33642;-61
2023/03/21 05:41:33;;;;;;;6.25;3.55;;;;;;;14.74;49.81;99531.28;4421123;32;34740;-61
2023/03/21 05:44:02;;;;;;;3.33;2.62;;;;;;;14.98;49.44;99529.94;4418273;32;34030;-65
2023/03/21 05:46:30;;;;;;;5.47;2.85;;;;;;;15.28;48.53;99532.34;4420052;32;33657;-64
2023/03/21 05:48:58;;;;;;;4.57;2.78;;;;;;;15.41;48.09;99540.09;4420987;32;34240;-62
2023/03/21 05:51:26;;;;;;;2.47;2.28;;;;;;;15.27;48.34;99537.88;4421722;32;33996;-62
2023/03/21 05:53:54;;;;;;;4.12;2.80;;;;;;;15.37;48.09;99539.50;4418993;32;33889;-64
2023/03/21 05:56:22;;;;;;;3.75;2.58;;;;;;;15.32;48.21;99538.28;4419509;32;34098;-62
2023/03/21 05:58:50;;;;;;;4.05;2.80;;;;;;;15.07;48.83;99546.06;4419424;32;32395;-61
2023/03/21 06:01:18;;;;;;;7.57;3.28;;;;;;;15.38;47.98;99543.94;4418357;32;33551;-61
2023/03/21 06:03:46;;;;;;;5.53;3.92;;;;;;;14.57;49.83;99550.87;4414603;32;33888;-62
2023/03/21 06:06:14;;;;;;;4.75;2.92;;;;;;;15.30;48.31;99543.81;4421557;32;35165;-62
2023/03/21 06:08:42;;;;;;;4.00;2.40;;;;;;;15.29;48.26;99544.81;4419315;32;34163;-64
2023/03/21 06:11:23;;;;;;;3.35;2.35;;;;;;;15.40;48.05;99543.75;4413753;32;34024;-64
2023/03/21 06:13:52;;;;;;;6.35;2.75;;;;;;;15.65;47.51;99555.69;4406631;32;34039;-64
2023/03/21 06:16:21;;;;;;;4.22;2.92;;;;;;;15.74;47.50;99557.50;4419290;32;33752;-61
2023/03/21 06:18:49;;;;;;;8.13;3.90;;;;;;;15.63;47.65;99552.28;4421490;32;34479;-61
2023/03/21 06:21:17;;;;;;;5.25;3.22;;;;;;;15.55;47.88;99555.75;4418531;32;33554;-62
2023/03/21 06:23:45;;;;;;;5.28;2.58;;;;;;;16.13;46.49;99548.28;4420422;32;34791;-62
2023/03/21 06:26:13;;;;;;;5.62;3.03;;;;;;;16.30;45.86;99555.50;4420336;32;34140;-63
2023/03/21 06:28:40;;;;;;;5.82;3.50;;;;;;;16.07;46.38;99547.88;4421052;32;33597;-62
2023/03/21 06:31:08;;;;;;;4.20;2.60;;;;;;;16.54;45.44;99553.00;4422624;32;35065;-62
2023/03/21 06:33:35;;;;;;;4.82;2.87;;;;;;;16.74;44.88;99550.94;4435750;32;35279;-64
2023/03/21 06:36:03;;;;;;;6.93;3.22;;;;;;;16.15;46.17;99555.22;4427379;32;33780;-62
2023/03/21 06:38:31;;;;;;;7.57;3.95;;;;;;;16.45;45.83;99553.09;4422476;32;34477;-62
2023/03/21 06:40:59;;;;;;;5.00;3.37;;;;;;;16.76;45.36;99556.22;4418107;32;34741;-61
2023/03/21 06:43:27;;;;;;;4.35;3.08;;;;;;;17.19;44.40;99549.03;4422043;32;34201;-61
2023/03/21 06:45:55;;;;;;;6.47;3.15;;;;;;;17.21;44.16;99545.16;4422520;32;33899;-62
2023/03/21 06:48:23;;;;;;;6.15;3.40;;;;;;;17.18;43.65;99550.87;4420041;32;33583;-64
2023/03/21 06:50:51;;;;;;;7.07;3.58;;;;;;;17.07;44.42;99547.59;4421573;32;33932;-61
2023/03/21 06:53:23;;;;;;;13.88;4.25;;;;;;;16.99;44.25;99551.13;4421908;32;35150;-62
2023/03/21 06:55:53;;;;;;;3.97;2.30;;;;;;;16.73;44.95;99546.56;4422816;32;33776;-62
2023/03/21 06:58:22;;;;;;;5.75;3.78;;;;;;;16.70;45.84;99554.97;4421625;32;33356;-63
2023/03/21 07:00:49;;;;;;;3.85;2.92;;;;;;;16.66;46.08;99552.72;4421316;32;33979;-62
2023/03/21 07:03:18;;;;;;;7.65;3.67;;;;;;;16.49;46.19;99559.87;4421182;32;35460;-62
2023/03/21 07:05:46;;;;;;;5.95;3.55;;;;;;;16.57;45.97;99557.25;4422080;32;33557;-62
2023/03/21 07:08:15;;;;;;;3.90;2.30;;;;;;;16.09;46.96;99555.84;4427299;32;33428;-61
2023/03/21 07:10:43;;;;;;;5.55;3.15;;;;;;;16.19;46.70;99558.44;4418020;32;34330;-62
2023/03/21 07:13:12;;;;;;;5.28;3.22;;;;;;;16.13;46.69;99559.91;4418436;32;34033;-62
2023/03/21 07:15:40;;;;;;;12.55;3.33;;;;;;;15.57;47.95;99556.47;4421035;32;33761;-65
2023/03/21 07:18:09;;;;;;;4.72;2.60;;;;;;;15.56;48.09;99564.69;4419508;32;33422;-63
2023/03/21 07:20:37;;;;;;;4.65;2.83;;;;;;;15.71;47.74;99565.06;4418611;32;33910;-63
2023/03/21 07:23:05;;;;;;;5.40;3.50;;;;;;;15.46;48.31;99561.19;4419882;32;34243;-63
2023/03/21 07:25:33;;;;;;;4.93;3.33;;;;;;;15.57;48.26;99564.56;4422026;32;34990;-63
2023/03/21 07:28:01;;;;;;;7.25;3.90;;;;;;;16.75;45.53;99568.03;4419692;32;33413;-66
2023/03/21 07:30:29;;;;;;;7.40;4.62;;;;;;;16.79;44.75;99560.44;4420736;32;32865;-62
2023/03/21 07:32:56;;;;;;;3.37;2.15;;;;;;;16.55;45.41;99575.47;4420918;32;33995;-64
2023/03/21 07:35:24;;;;;;;4.50;2.87;;;;;;;17.00;44.74;99578.00;4422332;32;33565;-63
2023/03/21 07:37:52;;;;;;;6.47;3.72;;;;;;;17.20;44.69;99569.66;4421672;32;33506;-63
2023/03/21 07:40:20;;;;;;;5.25;3.10;;;;;;;17.32;44.11;99565.66;4425413;32;33906;-67
2023/03/21 07:42:49;;;;;;;12.85;4.25;;;;;;;17.52;44.10;99563.53;4432974;32;33841;-63
2023/03/21 07:45:20;;;;;;;6.97;3.70;;;;;;;17.44;43.97;99563.50;4418010;32;35275;-63
2023/03/21 07:47:48;;;;;;;4.22;2.58;;;;;;;17.64;43.46;99564.09;4419618;32;34271;-65
2023/03/21 07:50:16;;;;;;;7.50;3.85;;;;;;;17.81;42.99;99565.00;4418892;32;33632;-64
2023/03/21 07:52:45;;;;;;;6.60;3.85;;;;;;;18.36;42.24;99558.97;4421163;32;33804;-64
2023/03/21 07:55:12;;;;;;;4.05;2.58;;;;;;;18.48;41.56;99559.47;4421531;32;33945;-63
2023/03/21 07:57:40;;;;;;;5.35;3.83;;;;;;;19.60;39.08;99553.09;4421464;32;33086;-63
2023/03/21 08:00:08;;;;;;;7.97;5.87;;;;;;;21.43;35.82;99545.81;4420319;32;34668;-63
2023/03/21 08:02:39;;;;;;;5.93;3.53;;;;;;;24.52;30.52;99544.81;4419701;32;34010;-63
2023/03/21 08:05:07;;;;;;;5.35;3.87;;;;;;;24.96;28.93;99546.91;4420511;32;33990;-66
2023/03/21 08:07:34;;;;;;;8.23;6.05;;;;;;;26.89;26.28;99541.28;4421412;32;33438;-66
2023/03/21 08:10:02;;;;;;;11.25;5.05;;;;;;;28.17;24.64;99541.50;4419179;32;34880;-66
2023/03/21 08:12:30;;;;;;;9.02;5.55;;;;;;;28.16;24.19;99545.31;4421832;32;33497;-64
2023/03/21 08:14:57;;;;;;;9.25;6.25;;;;;;;27.15;25.52;99542.94;4421450;32;34611;-65
2023/03/21 08:17:27;;;;;;;8.80;5.53;;;;;;;26.39;26.59;99544.00;4419963;32;33494;-66
2023/03/21 08:19:55;;;;;;;7.10;5.35;;;;;;;26.23;26.65;99553.63;4422861;32;34677;-64
2023/03/21 08:22:22;;;;;;;8.25;6.05;;;;;;;25.09;28.21;99551.50;4420351;32;35254;-63
2023/03/21 08:24:50;;;;;;;8.82;5.97;;;;;;;24.43;29.08;99546.06;4419764;32;33605;-62
2023/03/21 08:27:19;;;;;;;11.52;5.90;;;;;;;23.77;29.90;99544.88;4417800;32;33196;-65
2023/03/21 08:29:46;;;;;;;8.60;5.50;;;;;;;23.19;30.88;99544.37;4421095;32;32769;-64
2023/03/21 08:32:17;;;;;;;6.20;3.83;;;;;;;22.33;32.22;99549.97;4420545;32;34074;-62
2023/03/21 08:34:45;;;;;;;9.30;4.82;;;;;;;22.74;31.78;99549.28;4420753;32;32535;-64
2023/03/21 08:37:12;;;;;;;7.03;4.65;;;;;;;21.80;33.59;99554.84;4418727;32;32191;-62
2023/03/21 08:39:40;;;;;;;7.45;5.53;;;;;;;20.95;35.20;99558.91;4418942;32;33662;-64
2023/03/21 08:42:08;;;;;;;8.90;5.65;;;;;;;20.88;35.08;99561.53;4420562;32;33787;-65
2023/03/21 08:44:37;;;;;;;7.30;4.87;;;;;;;20.40;36.17;99562.81;4418081;32;33979;-63
2023/03/21 08:47:05;;;;;;;5.78;3.92;;;;;;;20.14;36.57;99561.28;4413439;32;33123;-62
2023/03/21 08:49:36;;;;;;;8.18;5.40;;;;;;;20.13;36.49;99565.06;4419963;32;32817;-63
2023/03/21 08:52:05;;;;;;;7.18;4.55;;;;;;;20.13;36.79;99561.50;4420466;32;34051;-63
2023/03/21 08:54:32;;;;;;;9.63;5.47;;;;;;;20.27;36.24;99557.97;4419288;32;33049;-63
2023/03/21 08:57:00;;;;;;;6.90;3.65;;;;;;;20.04;36.74;99562.56;4417920;32;33161;-63
2023/03/21 08:59:27;;;;;;;4.80;3.65;;;;;;;19.99;36.76;99554.94;4416738;32;33807;-63
2023/03/21 09:01:55;;;;;;;6.85;4.55;;;;;;;20.01;36.15;99558.34;4418620;32;34234;-63
2023/03/21 09:04:24;;;;;;;7.30;4.95;;;;;;;19.44;37.14;99562.16;4420464;32;33509;-63
2023/03/21 09:06:55;;;;;;;9.40;5.93;;;;;;;18.78;38.86;99557.94;4412989;32;34523;-64
2023/03/21 09:09:22;;;;;;;6.35;4.18;;;;;;;18.91;39.32;99562.84;4406128;32;34990;-63
2023/03/21 09:11:50;;;;;;;5.75;4.00;;;;;;;19.40;38.45;99558.13;4413231;32;33876;-63
2023/03/21 09:14:18;;;;;;;13.20;5.65;;;;;;;19.36;38.87;99566.78;4412730;32;32548;-61
2023/03/21 09:16:50;;;;;;;5.40;3.42;;;;;;;18.74;39.85;99559.31;4418561;32;33039;-64
2023/03/21 09:19:18;;;;;;;7.12;3.83;;;;;;;19.57;38.50;99566.19;4417994;32;33743;-62
2023/03/21 09:21:46;;;;;;;6.55;4.10;;;;;;;19.97;37.42;99562.44;4414167;32;33885;-65
2023/03/21 09:24:14;;;;;;;8.57;4.47;;;;;;;19.43;38.41;99559.66;4408945;32;34644;-64
2023/03/21 09:26:42;;;;;;;8.10;5.72;;;;;;;20.19;37.31;99567.03;4409622;32;33226;-62
2023/03/21 09:29:10;;;;;;;5.53;4.07;;;;;;;20.34;36.97;99564.38;4409744;32;34796;-63
2023/03/21 09:31:38;;;;;;;8.00;3.65;;;;;;;20.54;36.25;99563.91;4413085;32;35585;-63
2023/03/21 09:34:06;;;;;;;7.53;4.35;;;;;;;20.10;37.04;99562.69;4411280;32;33765;-64
2023/03/21 09:36:34;;;;;;;7.50;4.50;;;;;;;20.23;36.65;99564.81;4410086;32;34155;-63
2023/03/21 09:39:03;;;;;;;6.75;3.87;;;;;;;20.62;36.28;99569.28;4410790;32;34758;-62
2023/03/21 09:41:44;;;;;;;6.47;5.00;;;;;;;20.91;35.17;99557.59;4419191;32;33981;-62
2023/03/21 09:44:24;;;;;;;8.75;5.97;;;;;;;21.14;35.05;99566.53;4415948;32;34123;-62
2023/03/21 09:46:57;;;;;;;6.50;4.10;;;;;;;21.06;35.40;99558.47;4415034;32;33617;-62
2023/03/21 09:49:40;;;;;;;8.15;3.97;;;;;;;21.08;35.29;99558.25;4419726;32;34000;-63
2023/03/21 09:52:12;;;;;;;7.37;5.07;;;;;;;21.16;35.28;99545.41;4404921;32;34093;-63
2023/03/21 09:54:44;;;;;;;6.32;3.35;;;;;;;21.46;34.70;99550.87;4406569;32;32638;-64
2023/03/21 09:57:20;;;;;;;7.43;3.70;;;;;;;21.38;34.02;99545.53;4418686;32;34630;-61
2023/03/21 09:59:49;;;;;;;8.25;4.75;;;;;;;21.30;33.70;99548.31;4420111;32;34577;-65
2023/03/21 10:02:48;;;;;;;6.57;3.90;;;;;;;20.99;34.33;99552.06;4421895;32;33702;-62
2023/03/21 10:05:22;;;;;;;4.93;3.12;;;;;;;21.74;33.47;99548.28;4420823;32;33407;-62
2023/03/21 10:07:54;;;;;;;8.38;3.92;;;;;;;22.04;32.02;99537.28;4421337;32;32805;-62
2023/03/21 10:10:26;;;;;;;5.95;3.40;;;;;;;21.84;32.39;99531.62;4422574;32;33643;-64
2023/03/21 10:12:55;;;;;;;7.18;4.22;;;;;;;22.12;32.18;99529.00;4423150;32;34105;-63
2023/03/21 10:15:25;;;;;;;4.78;3.08;;;;;;;22.09;32.00;99534.84;4419796;32;32577;-64
2023/03/21 10:18:01;;;;;;;4.32;2.37;;;;;;;22.48;31.73;99526.22;4420107;32;33873;-62
2023/03/21 10:20:34;;;;;;;5.85;2.15;;;;;;;22.74;30.52;99524.72;4420322;32;33331;-63
2023/03/21 10:23:05;;;;;;;5.90;3.00;;;;;;;22.38;30.45;99524.88;4401166;32;33789;-65
2023/03/21 10:25:39;;;;;;;4.75;2.67;;;;;;;22.05;31.13;99520.75;4405120;32;34862;-63
2023/03/21 10:28:15;;;;;;;4.70;2.65;;;;;;;22.19;30.60;99521.75;4408359;32;33026;-62
2023/03/21 10:30:46;;;;;;;5.30;3.15;;;;;;;22.37;30.01;99517.69;4409107;32;33730;-62
2023/03/21 10:33:16;;;;;;;9.13;4.95;;;;;;;22.23;30.58;99527.66;4418297;32;33820;-64
2023/03/21 10:35:49;;;;;;;4.50;2.47;;;;;;;21.87;31.15;99521.19;4404351;32;32587;-63
2023/03/21 10:38:19;;;;;;;5.22;3.17;;;;;;;22.56;29.89;99517.88;4421127;32;33368;-62
2023/03/21 10:40:47;;;;;;;5.03;2.83;;;;;;;22.93;29.55;99515.00;4403797;32;33054;-64
2023/03/21 10:43:17;;;;;;;4.72;2.90;;;;;;;22.14;30.28;99518.72;4420699;32;34075;-64
2023/03/21 10:45:47;;;;;;;5.32;2.62;;;;;;;22.25;30.30;99515.53;4420544;32;35415;-65
2023/03/21 10:48:15;;;;;;;4.20;2.58;;;;;;;22.36;30.28;99514.13;4419323;32;32400;-62
2023/03/21 10:50:45;;;;;;;6.12;2.53;;;;;;;22.54;29.50;99514.50;4420262;32;34913;-63
2023/03/21 10:53:20;;;;;;;6.20;2.70;;;;;;;22.72;28.94;99504.97;4405437;32;34891;-64
2023/03/21 10:55:50;;;;;;;;;;;;;;;22.84;28.74;99502.53;4403773;32;33788;-65
2023/03/21 10:58:24;;;;;;;4.97;2.40;;;;;;;22.64;28.64;99502.41;4417202;32;34414;-62
2023/03/21 11:00:57;;;;;;;4.37;2.00;;;;;;;22.50;29.42;99506.91;4415577;32;32721;-63
2023/03/21 11:03:31;;;;;;;5.37;2.40;;;;;;;22.63;28.64;99501.56;4411453;32;35032;-63
2023/03/21 11:06:05;;;;;;;3.33;1.85;;;;;;;22.83;27.85;99504.44;4412556;32;33847;-65
2023/03/21 11:08:42;;;;;;;4.68;2.17;;;;;;;22.96;27.22;99492.78;4406613;32;34457;-65
2023/03/21 11:11:18;;;;;;;5.28;2.87;;;;;;;22.84;27.31;99486.19;4406527;32;33901;-62
2023/03/21 11:13:55;;;;;;;4.12;1.87;;;;;;;22.32;28.40;99493.78;4403482;32;33658;-62
2023/03/21 11:16:37;;;;;;;4.05;2.20;;;;;;;22.73;27.43;99484.84;4404034;32;33396;-62
2023/03/21 11:19:19;;;;;;;5.95;2.97;;;;;;;22.47;28.21;99467.25;4419669;32;34046;-62
2023/03/21 11:21:47;;;;;;;3.92;2.15;;;;;;;22.59;29.26;99474.87;4400177;32;35108;-62
2023/03/21 11:24:18;;;;;;;3.55;2.25;;;;;;;22.65;28.47;99474.94;4417723;32;32740;-63
2023/03/21 11:26:48;;;;;;;5.45;3.25;;;;;;;22.05;29.07;99476.28;4404328;32;35158;-62
2023/03/21 11:29:22;;;;;;;4.45;2.37;;;;;;;22.10;29.08;99480.13;4398921;32;32729;-61
2023/03/21 11:31:49;;;;;;;4.40;1.58;;;;;;;21.82;28.92;99471.03;4398153;32;34088;-64
2023/03/21 11:34:46;;;;;;;5.53;2.87;;;;;;;21.92;28.12;99471.56;4419451;32;33300;-63
2023/03/21 11:37:19;;;;;;;6.37;3.22;;;;;;;21.69;28.55;99466.28;4392981;32;33558;-62
2023/03/21 11:39:53;;;;;;;3.72;1.85;;;;;;;21.14;28.65;99459.56;4410996;32;34217;-62
2023/03/21 11:42:30;;;;;;;5.05;2.17;;;;;;;21.27;28.84;99462.44;4416422;32;34267;-62
2023/03/21 11:45:27;;;;;;;5.43;2.35;;;;;;;21.89;28.57;99452.87;4419578;32;34109;-64
2023/03/21 11:47:57;;;;;;;5.20;2.65;;;;;;;22.07;28.50;99452.41;4404185;32;178547;-62
2023/03/21 11:50:35;;;;;;;3.85;2.00;;;;;;;22.76;27.49;99449.84;4405793;32;32753;-66
2023/03/21 11:53:11;;;;;;;5.37;1.98;;;;;;;21.79;28.02;99447.75;4405266;32;34081;-63
2023/03/21 11:55:41;;;;;;;5.37;1.83;;;;;;;22.04;27.14;99450.91;4426834;32;36393;-63